Flight Track Log - Related Links

Times and Time Zones

All times are in EDT time to prevent confusion due to time zone crossing. See the SWA1969 flight status page for this flight to view local times or setup timezone preferences in your user account.

Time Position Orientation Groundspeed Altitude Reporting Facility
EDT Latitude Longitude Course Direction KTS MPH feet Rate Location/Type
Fri 08:42:54 AM 35.4542 -97.5919 27° Northeast 216 249 4,100  Level Fort Worth Center
Fri 08:43:54 AM 35.4856 -97.5131 64° Northeast 284 327 6,700 2,749 Climbing Fort Worth Center
Fri 08:45:53 AM 35.5661 -97.3275 62° Northeast 325 374 12,300 2,733 Climbing Kansas City Center
Fri 08:46:54 AM 35.6128 -97.2153 63° Northeast 355 409 14,900 3,200 Climbing Kansas City Center
Fri 08:47:53 AM 35.6628 -97.0964 63° Northeast 382 440 18,700 3,024 Climbing Kansas City Center
Fri 08:48:57 AM 35.7136 -96.9728 63° Northeast 398 458 21,100 2,419 Climbing Kansas City Center
Fri 08:49:57 AM 35.7681 -96.8417 63° Northeast 423 487 23,700 2,262 Climbing Kansas City Center
Fri 08:50:59 AM 35.8244 -96.7047 63° Northeast 441 507 25,700 1,934 Climbing Kansas City Center
Fri 08:51:58 AM 35.8828 -96.5625 63° Northeast 459 528 27,600 1,610 Climbing Kansas City Center
Fri 08:53:02 AM 35.9489 -96.4003 63° Northeast 490 564 29,000 1,452 Climbing Kansas City Center
Fri 08:54:02 AM 36.0131 -96.2422 63° Northeast 509 586 30,600 1,512 Climbing Kansas City Center
Fri 08:55:05 AM 36.0792 -96.0800 63° Northeast 523 602 32,100 1,686 Climbing Kansas City Center
Fri 08:56:03 AM 36.1450 -95.9167 63° Northeast 529 609 34,000 1,869 Climbing Kansas City Center
Fri 08:57:07 AM 36.2194 -95.7372 63° Northeast 526 605 35,900 1,500 Climbing Kansas City Center
Fri 08:58:07 AM 36.2953 -95.5858 58° Northeast 520 598 37,100 1,279 Climbing Kansas City Center
Fri 08:59:09 AM 36.3700 -95.4308 59° Northeast 522 601 38,500 927 Climbing Kansas City Center
Fri 09:00:10 AM 36.4417 -95.2764 60° Northeast 520 598 39,000 248 Climbing Kansas City Center
Fri 09:01:10 AM 36.5164 -95.1242 59° Northeast 519 597 39,000  Level Kansas City Center
Fri 09:02:11 AM 36.6269 -95.0083 40° Northeast 517 595 39,000  Level Kansas City Center
Fri 09:03:12 AM 36.7314 -94.8914 42° Northeast 508 585 39,000  Level Kansas City Center
Fri 09:04:13 AM 36.8386 -94.7722 42° Northeast 512 589 39,000  Level Kansas City Center
Fri 09:05:15 AM 36.9467 -94.6544 41° Northeast 514 592 39,000  Level Kansas City Center
Fri 09:06:18 AM 37.0714 -94.5064 43° Northeast 515 593 39,000  Level Kansas City Center
Fri 09:07:18 AM 37.1728 -94.3806 45° Northeast 514 592 39,000  Level Kansas City Center
Fri 09:08:19 AM 37.2758 -94.2556 44° Northeast 514 592 39,000  Level Kansas City Center
Fri 09:09:20 AM 37.3789 -94.1300 44° Northeast 515 593 39,000  Level Kansas City Center
Fri 09:10:23 AM 37.4733 -94.0150 44° Northeast 519 597 39,000  Level Kansas City Center
Fri 09:11:24 AM 37.5967 -93.8603 45° Northeast 520 598 39,000  Level Kansas City Center
Fri 09:12:25 AM 37.6997 -93.7308 45° Northeast 520 598 39,000  Level Kansas City Center
Fri 09:13:25 AM 37.8028 -93.6028 44° Northeast 517 595 39,000  Level Kansas City Center
Fri 09:14:29 AM 37.9067 -93.4733 44° Northeast 519 597 39,000  Level Kansas City Center
Fri 09:15:30 AM 38.0108 -93.3439 44° Northeast 520 598 39,000  Level Kansas City Center
Fri 09:16:31 AM 38.1125 -93.2150 45° Northeast 516 594 39,000  Level Kansas City Center
Fri 09:17:31 AM 38.2156 -93.0856 45° Northeast 515 593 39,000  Level Kansas City Center
Fri 09:18:35 AM 38.3192 -92.9561 44° Northeast 515 593 39,000  Level Kansas City Center
Fri 09:19:35 AM 38.4181 -92.8272 46° Northeast 506 582 39,000  Level Kansas City Center
Fri 09:20:36 AM 38.5172 -92.7017 45° Northeast 500 575 39,000  Level Kansas City Center
Fri 09:21:37 AM 38.6156 -92.5750 45° Northeast 497 572 39,000  Level Kansas City Center
Fri 09:22:38 AM 38.7144 -92.4478 45° Northeast 497 572 39,000  Level Kansas City Center
Fri 09:23:41 AM 38.8136 -92.3164 46° Northeast 503 579 39,000  Level Kansas City Center
Fri 09:24:43 AM 38.9122 -92.1886 45° Northeast 502 578 39,000  Level Kansas City Center
Fri 09:25:44 AM 39.0119 -92.0611 45° Northeast 501 577 39,000  Level Kansas City Center
Fri 09:26:46 AM 39.1297 -91.9036 46° Northeast 504 580 39,000  Level Kansas City Center
Fri 09:27:47 AM 39.2292 -91.7719 46° Northeast 507 583 39,000  Level Kansas City Center
Fri 09:28:47 AM 39.3319 -91.6397 45° Northeast 512 589 39,000 -98 Level Kansas City Center
Fri 09:29:50 AM 39.4311 -91.5072 46° Northeast 513 590 38,800 -484 Descending Kansas City Center
Fri 09:30:51 AM 39.5156 -91.3939 46° Northeast 511 588 38,000 -934 Descending Kansas City Center
Fri 09:31:52 AM 39.6256 -91.2464 46° Northeast 505 581 36,900 -1,056 Descending Kansas City Center
Fri 09:32:56 AM 39.7208 -91.1169 46° Northeast 498 573 35,800 -912 Descending Kansas City Center
Fri 09:33:57 AM 39.8172 -90.9883 46° Northeast 491 565 35,000 -397 Descending Kansas City Center
Fri 09:34:57 AM 39.9061 -90.8672 46° Northeast 489 563 35,000  Level Kansas City Center
Fri 09:35:59 AM 40.0006 -90.7364 47° Northeast 492 566 35,000 -1,366 Level Kansas City Center
Fri 09:37:00 AM 40.1125 -90.5828 46° Northeast 489 563 32,200 -2,400 Descending Kansas City Center
Fri 09:37:34 AM 40.1492 -90.5325 46° Northeast 484 557 31,200 -750 Descending Chicago Center
Fri 09:38:36 AM 40.2586 -90.3822 46° Northeast 476 548 31,000 -387 Descending Chicago Center
Fri 09:39:38 AM 40.3508 -90.2550 46° Northeast 480 552 30,400 -774 Descending Chicago Center
Fri 09:40:40 AM 40.4400 -90.1303 47° Northeast 472 543 29,400 -1,258 Descending Chicago Center
Fri 09:41:42 AM 40.5528 -90.0300 34° Northeast 456 525 27,800 -1,610 Descending Chicago Center
Fri 09:42:43 AM 40.6678 -89.9869 16° North 431 496 26,100 -1,366 Descending Chicago Center
Fri 09:43:45 AM 40.7381 -89.8681 52° Northeast 439 505 25,000 -1,016 Descending Chicago Center
Fri 09:44:47 AM 40.7758 -89.7181 72° East 435 501 24,000 -1,258 Descending Chicago Center
Fri 09:45:49 AM 40.8164 -89.5722 70° East 428 493 22,400 -1,403 Descending Chicago Center
Fri 09:46:51 AM 40.8733 -89.4333 61° Northeast 417 480 21,100 -1,500 Descending Chicago Center
Fri 09:47:53 AM 40.9439 -89.3178 51° Northeast 407 468 19,300 -1,220 Descending Chicago Center
Fri 09:48:54 AM 41.0231 -89.1889 51° Northeast 396 456 18,600 -1,610 Descending Chicago Center
Fri 09:49:56 AM 41.0933 -89.0736 51° Northeast 400 460 16,000 -2,323 Descending Chicago Center
Fri 09:50:58 AM 41.1633 -88.9594 51° Northeast 400 460 13,800 -2,323 Descending Chicago Center
Fri 09:52:00 AM 41.2289 -88.8500 51° Northeast 384 442 11,200 -1,935 Descending Chicago Center
Fri 09:53:02 AM 41.3011 -88.7283 52° Northeast 346 398 9,800 -1,500 Descending Chicago Center
Fri 09:54:04 AM 41.3547 -88.6406 51° Northeast 312 359 8,100 -1,610 Descending Chicago Center
Fri 09:55:05 AM 41.4044 -88.5553 52° Northeast 297 342 6,500 -1,024 Descending Chicago Center
Fri 09:56:07 AM 41.4544 -88.4722 51° Northeast 290 334 6,000 -581 Descending Chicago Center
Fri 09:57:09 AM 41.5039 -88.3886 52° Northeast 287 330 5,300 -484 Descending Chicago Center
Fri 09:58:11 AM 41.5531 -88.3058 52° Northeast 284 327 5,000 -145 Descending Chicago Center
Fri 09:59:13 AM 41.5642 -88.2042 82° East 286 329 5,000  Level Chicago Center
Fri 10:00:15 AM 41.5672 -88.0983 88° East 284 327 5,000 -48 Level Chicago Center
Fri 10:01:17 AM 41.5711 -87.9750 88° East 278 320 4,900 -339 Descending Chicago Center
Fri 10:02:19 AM 41.5736 -87.8872 88° East 254 292 4,300 -435 Descending Chicago Center
Fri 10:03:21 AM 41.5775 -87.8036 86° East 238 274 4,000 -484 Descending Chicago Center
Fri 10:04:23 AM 41.5808 -87.7281 87° East 221 254 3,300 -488 Descending Chicago Center
Fri 10:05:24 AM 41.5847 -87.6547 86° East 208 239 3,000 -146 Descending Chicago Center
Fri 10:06:26 AM 41.5794 -87.5839 96° East 204 235 3,000 -48 Level Chicago Center
Fri 10:07:28 AM 41.6150 -87.5506 35° Northeast 199 229 2,900 -242 Descending Chicago Center
Fri 10:08:30 AM 41.6647 -87.5844 333° Northwest 179 206 2,500 -194 Descending Chicago Center
Fri 10:09:32 AM 41.7000 -87.6333 314° West 161 185 2,500 -155 Level Chicago TRACON
Fri 10:10:26 AM 41.7167 -87.6667 304° West 157 181 2,200 -550 Descending Chicago TRACON
Fri 10:11:32 AM 41.7500 -87.7167 312° West 130 150 1,400 -727 Descending Chicago TRACON

Login

Don't have an account? Register now (free) for customized features, flight alerts, and more!